sensor_id;sensor_type;location;lat;lon;timestamp;temperature;humidity
75113;DHT22;63692;47.338;8.520;2023-06-22T03:56:13;19.80;99.90
75113;DHT22;63692;47.338;8.520;2023-06-22T03:58:48;19.80;99.90
75113;DHT22;63692;47.338;8.520;2023-06-22T04:01:13;19.80;99.90
75113;DHT22;63692;47.338;8.520;2023-06-22T04:03:42;19.80;99.90
75113;DHT22;63692;47.338;8.520;2023-06-22T04:06:08;19.80;99.90
75113;DHT22;63692;47.338;8.520;2023-06-22T04:08:37;19.80;99.90
75113;DHT22;63692;47.338;8.520;2023-06-22T04:11:02;19.80;99.90
75113;DHT22;63692;47.338;8.520;2023-06-22T04:13:28;19.90;99.90
75113;DHT22;63692;47.338;8.520;2023-06-22T04:15:54;19.80;99.90
75113;DHT22;63692;47.338;8.520;2023-06-22T04:18:25;19.80;99.90
75113;DHT22;63692;47.338;8.520;2023-06-22T04:20:50;19.80;99.90
75113;DHT22;63692;47.338;8.520;2023-06-22T04:23:16;19.80;99.90
75113;DHT22;63692;47.338;8.520;2023-06-22T04:25:41;19.80;99.90
75113;DHT22;63692;47.338;8.520;2023-06-22T04:28:07;19.70;99.90
75113;DHT22;63692;47.338;8.520;2023-06-22T04:40:37;19.80;99.90
75113;DHT22;63692;47.338;8.520;2023-06-22T04:50:36;20.00;99.90
75113;DHT22;63692;47.338;8.520;2023-06-22T04:53:04;20.00;99.90
75113;DHT22;63692;47.338;8.520;2023-06-22T04:57:58;20.00;99.90
75113;DHT22;63692;47.338;8.520;2023-06-22T05:00:30;20.10;99.90
75113;DHT22;63692;47.338;8.520;2023-06-22T05:02:56;20.20;99.90
75113;DHT22;63692;47.338;8.520;2023-06-22T05:05:24;20.20;99.90
75113;DHT22;63692;47.338;8.520;2023-06-22T05:07:51;20.30;99.90
75113;DHT22;63692;47.338;8.520;2023-06-22T05:10:19;20.30;99.90
75113;DHT22;63692;47.338;8.520;2023-06-22T05:12:45;20.40;99.90
75113;DHT22;63692;47.338;8.520;2023-06-22T05:15:11;20.40;99.90
75113;DHT22;63692;47.338;8.520;2023-06-22T05:17:37;20.40;99.90
75113;DHT22;63692;47.338;8.520;2023-06-22T05:20:11;20.50;99.90
75113;DHT22;63692;47.338;8.520;2023-06-22T05:22:38;20.60;99.90
75113;DHT22;63692;47.338;8.520;2023-06-22T05:25:05;20.70;99.90
75113;DHT22;63692;47.338;8.520;2023-06-22T05:27:31;20.80;99.90
75113;DHT22;63692;47.338;8.520;2023-06-22T05:35:00;21.00;99.90
75113;DHT22;63692;47.338;8.520;2023-06-22T05:39:53;21.10;99.90
75113;DHT22;63692;47.338;8.520;2023-06-22T05:42:20;21.20;99.90
75113;DHT22;63692;47.338;8.520;2023-06-22T05:44:46;21.20;99.90
75113;DHT22;63692;47.338;8.520;2023-06-22T05:47:13;21.30;99.90
75113;DHT22;63692;47.338;8.520;2023-06-22T05:49:38;21.40;99.90
75113;DHT22;63692;47.338;8.520;2023-06-22T05:52:04;21.40;99.90
75113;DHT22;63692;47.338;8.520;2023-06-22T05:54:30;21.50;99.90
75113;DHT22;63692;47.338;8.520;2023-06-22T05:56:55;21.50;99.90
75113;DHT22;63692;47.338;8.520;2023-06-22T06:01:49;21.60;99.90
75113;DHT22;63692;47.338;8.520;2023-06-22T06:04:19;21.70;99.90
75113;DHT22;63692;47.338;8.520;2023-06-22T06:09:17;21.80;99.90
75113;DHT22;63692;47.338;8.520;2023-06-22T06:16:46;21.80;99.90
75113;DHT22;63692;47.338;8.520;2023-06-22T06:19:11;21.90;99.90
75113;DHT22;63692;47.338;8.520;2023-06-22T06:24:08;21.90;99.90
75113;DHT22;63692;47.338;8.520;2023-06-22T06:26:34;21.90;99.90
75113;DHT22;63692;47.338;8.520;2023-06-22T06:29:01;22.00;99.90
75113;DHT22;63692;47.338;8.520;2023-06-22T06:31:27;21.90;99.90
75113;DHT22;63692;47.338;8.520;2023-06-22T06:33:54;22.10;99.90
75113;DHT22;63692;47.338;8.520;2023-06-22T06:36:20;22.10;99.90
75113;DHT22;63692;47.338;8.520;2023-06-22T06:38:46;22.10;99.90
75113;DHT22;63692;47.338;8.520;2023-06-22T06:41:14;22.10;99.90
75113;DHT22;63692;47.338;8.520;2023-06-22T06:43:40;22.20;99.90
75113;DHT22;63692;47.338;8.520;2023-06-22T06:46:07;22.30;99.90
75113;DHT22;63692;47.338;8.520;2023-06-22T06:48:33;22.30;99.90
75113;DHT22;63692;47.338;8.520;2023-06-22T06:50:59;22.40;99.90
75113;DHT22;63692;47.338;8.520;2023-06-22T06:53:24;22.50;99.90
75113;DHT22;63692;47.338;8.520;2023-06-22T06:58:19;22.70;99.90
75113;DHT22;63692;47.338;8.520;2023-06-22T07:00:45;22.80;99.90
75113;DHT22;63692;47.338;8.520;2023-06-22T07:03:10;22.90;99.90
75113;DHT22;63692;47.338;8.520;2023-06-22T07:05:36;23.00;99.90
75113;DHT22;63692;47.338;8.520;2023-06-22T07:08:02;23.10;99.90
75113;DHT22;63692;47.338;8.520;2023-06-22T07:10:28;23.10;99.90
75113;DHT22;63692;47.338;8.520;2023-06-22T07:12:54;23.10;99.90
75113;DHT22;63692;47.338;8.520;2023-06-22T07:15:19;23.10;99.90
75113;DHT22;63692;47.338;8.520;2023-06-22T07:17:45;23.20;99.90
75113;DHT22;63692;47.338;8.520;2023-06-22T07:20:11;23.10;99.90
75113;DHT22;63692;47.338;8.520;2023-06-22T07:22:42;23.20;99.90
75113;DHT22;63692;47.338;8.520;2023-06-22T07:25:08;23.20;99.90
75113;DHT22;63692;47.338;8.520;2023-06-22T07:27:39;23.30;99.90
75113;DHT22;63692;47.338;8.520;2023-06-22T07:30:08;23.10;99.90
75113;DHT22;63692;47.338;8.520;2023-06-22T07:32:34;23.10;99.90
75113;DHT22;63692;47.338;8.520;2023-06-22T07:35:00;23.10;99.90
75113;DHT22;63692;47.338;8.520;2023-06-22T07:37:27;23.00;99.90
75113;DHT22;63692;47.338;8.520;2023-06-22T07:39:53;23.00;99.90
75113;DHT22;63692;47.338;8.520;2023-06-22T07:42:26;23.00;99.90
75113;DHT22;63692;47.338;8.520;2023-06-22T07:44:53;23.00;99.90
75113;DHT22;63692;47.338;8.520;2023-06-22T07:47:18;23.10;99.90
75113;DHT22;63692;47.338;8.520;2023-06-22T07:49:45;23.10;99.90
75113;DHT22;63692;47.338;8.520;2023-06-22T07:52:11;23.10;99.90
75113;DHT22;63692;47.338;8.520;2023-06-22T07:54:36;23.00;99.90
75113;DHT22;63692;47.338;8.520;2023-06-22T07:57:02;23.10;99.90
75113;DHT22;63692;47.338;8.520;2023-06-22T07:59:28;23.20;99.90
75113;DHT22;63692;47.338;8.520;2023-06-22T08:01:55;23.30;99.90
75113;DHT22;63692;47.338;8.520;2023-06-22T08:04:21;23.40;99.90
75113;DHT22;63692;47.338;8.520;2023-06-22T08:06:46;23.50;99.90
75113;DHT22;63692;47.338;8.520;2023-06-22T08:09:12;23.70;99.90
75113;DHT22;63692;47.338;8.520;2023-06-22T08:11:38;23.70;99.90
75113;DHT22;63692;47.338;8.520;2023-06-22T08:14:03;23.70;99.90
75113;DHT22;63692;47.338;8.520;2023-06-22T08:16:29;23.80;99.90
75113;DHT22;63692;47.338;8.520;2023-06-22T08:18:55;23.80;99.90
75113;DHT22;63692;47.338;8.520;2023-06-22T08:21:21;23.90;99.90
75113;DHT22;63692;47.338;8.520;2023-06-22T08:23:48;23.90;99.90
75113;DHT22;63692;47.338;8.520;2023-06-22T08:26:14;24.00;99.90
75113;DHT22;63692;47.338;8.520;2023-06-22T08:28:40;24.00;99.90
75113;DHT22;63692;47.338;8.520;2023-06-22T08:31:06;24.00;99.90
75113;DHT22;63692;47.338;8.520;2023-06-22T08:33:31;24.10;99.90
75113;DHT22;63692;47.338;8.520;2023-06-22T08:35:58;24.10;99.90
75113;DHT22;63692;47.338;8.520;2023-06-22T08:38:25;24.10;99.90
75113;DHT22;63692;47.338;8.520;2023-06-22T08:40:50;24.10;99.90
75113;DHT22;63692;47.338;8.520;2023-06-22T08:43:16;24.20;99.90
75113;DHT22;63692;47.338;8.520;2023-06-22T08:45:41;24.30;99.90
75113;DHT22;63692;47.338;8.520;2023-06-22T08:48:07;24.30;99.90
75113;DHT22;63692;47.338;8.520;2023-06-22T08:50:32;24.40;99.90
75113;DHT22;63692;47.338;8.520;2023-06-22T08:52:58;24.50;99.90
75113;DHT22;63692;47.338;8.520;2023-06-22T08:55:24;24.50;99.90
75113;DHT22;63692;47.338;8.520;2023-06-22T08:57:49;24.60;99.90
75113;DHT22;63692;47.338;8.520;2023-06-22T09:00:16;24.60;99.90
75113;DHT22;63692;47.338;8.520;2023-06-22T09:02:46;24.70;99.90
75113;DHT22;63692;47.338;8.520;2023-06-22T09:05:12;24.70;99.90
75113;DHT22;63692;47.338;8.520;2023-06-22T09:07:38;24.80;99.90
75113;DHT22;63692;47.338;8.520;2023-06-22T09:10:04;24.90;99.90
75113;DHT22;63692;47.338;8.520;2023-06-22T09:12:31;25.00;99.90
75113;DHT22;63692;47.338;8.520;2023-06-22T09:15:00;25.00;99.90
75113;DHT22;63692;47.338;8.520;2023-06-22T09:17:26;25.00;99.90
75113;DHT22;63692;47.338;8.520;2023-06-22T09:19:52;25.00;99.90
75113;DHT22;63692;47.338;8.520;2023-06-22T09:22:18;25.10;99.90
75113;DHT22;63692;47.338;8.520;2023-06-22T09:24:44;25.10;99.90
75113;DHT22;63692;47.338;8.520;2023-06-22T09:27:09;25.10;99.90
75113;DHT22;63692;47.338;8.520;2023-06-22T09:29:35;25.20;99.90
75113;DHT22;63692;47.338;8.520;2023-06-22T09:32:01;25.20;99.90
75113;DHT22;63692;47.338;8.520;2023-06-22T09:34:27;25.20;99.90
75113;DHT22;63692;47.338;8.520;2023-06-22T09:36:52;25.30;99.90
75113;DHT22;63692;47.338;8.520;2023-06-22T09:39:18;25.30;99.90
75113;DHT22;63692;47.338;8.520;2023-06-22T09:41:44;25.50;99.90
75113;DHT22;63692;47.338;8.520;2023-06-22T09:44:10;25.60;99.90
75113;DHT22;63692;47.338;8.520;2023-06-22T09:46:35;25.60;99.90
75113;DHT22;63692;47.338;8.520;2023-06-22T09:49:01;25.50;99.90
75113;DHT22;63692;47.338;8.520;2023-06-22T09:51:26;25.50;99.90
75113;DHT22;63692;47.338;8.520;2023-06-22T09:53:52;25.50;99.90
75113;DHT22;63692;47.338;8.520;2023-06-22T09:56:19;25.60;99.90
75113;DHT22;63692;47.338;8.520;2023-06-22T09:58:48;25.70;99.90
75113;DHT22;63692;47.338;8.520;2023-06-22T10:01:15;25.80;99.90
75113;DHT22;63692;47.338;8.520;2023-06-22T10:03:41;25.90;99.90
75113;DHT22;63692;47.338;8.520;2023-06-22T10:06:07;26.00;99.90
75113;DHT22;63692;47.338;8.520;2023-06-22T10:08:34;26.00;99.90
75113;DHT22;63692;47.338;8.520;2023-06-22T10:11:01;26.00;99.90
75113;DHT22;63692;47.338;8.520;2023-06-22T10:13:26;26.00;99.90
75113;DHT22;63692;47.338;8.520;2023-06-22T10:15:52;26.00;99.90
75113;DHT22;63692;47.338;8.520;2023-06-22T10:18:18;26.00;99.90
75113;DHT22;63692;47.338;8.520;2023-06-22T10:20:46;26.00;99.90
75113;DHT22;63692;47.338;8.520;2023-06-22T10:23:12;26.00;99.90
75113;DHT22;63692;47.338;8.520;2023-06-22T10:25:38;26.10;99.90
75113;DHT22;63692;47.338;8.520;2023-06-22T10:28:03;26.10;99.90
75113;DHT22;63692;47.338;8.520;2023-06-22T10:30:29;26.20;99.90
75113;DHT22;63692;47.338;8.520;2023-06-22T10:32:55;26.20;99.90
75113;DHT22;63692;47.338;8.520;2023-06-22T10:35:20;26.20;99.90
75113;DHT22;63692;47.338;8.520;2023-06-22T10:37:46;26.30;99.90
75113;DHT22;63692;47.338;8.520;2023-06-22T10:40:16;26.40;99.90
75113;DHT22;63692;47.338;8.520;2023-06-22T10:42:42;26.40;99.90
75113;DHT22;63692;47.338;8.520;2023-06-22T10:45:08;26.50;99.90
75113;DHT22;63692;47.338;8.520;2023-06-22T10:47:34;26.60;99.90
75113;DHT22;63692;47.338;8.520;2023-06-22T10:50:01;26.60;99.90
75113;DHT22;63692;47.338;8.520;2023-06-22T10:52:27;26.70;99.90
75113;DHT22;63692;47.338;8.520;2023-06-22T10:54:52;26.70;99.90
75113;DHT22;63692;47.338;8.520;2023-06-22T10:57:18;26.80;99.90
75113;DHT22;63692;47.338;8.520;2023-06-22T10:59:45;26.90;99.90
75113;DHT22;63692;47.338;8.520;2023-06-22T11:02:10;26.90;99.90
75113;DHT22;63692;47.338;8.520;2023-06-22T11:04:36;26.80;99.90
75113;DHT22;63692;47.338;8.520;2023-06-22T11:09:50;26.90;99.90
75113;DHT22;63692;47.338;8.520;2023-06-22T11:12:19;26.90;99.90
75113;DHT22;63692;47.338;8.520;2023-06-22T11:14:45;26.90;99.90
75113;DHT22;63692;47.338;8.520;2023-06-22T11:17:10;27.00;99.90
75113;DHT22;63692;47.338;8.520;2023-06-22T11:19:38;27.00;99.90
75113;DHT22;63692;47.338;8.520;2023-06-22T11:22:10;26.90;99.90
75113;DHT22;63692;47.338;8.520;2023-06-22T11:24:38;26.90;99.90
75113;DHT22;63692;47.338;8.520;2023-06-22T11:27:07;26.80;99.90
75113;DHT22;63692;47.338;8.520;2023-06-22T11:29:32;26.70;99.90
75113;DHT22;63692;47.338;8.520;2023-06-22T11:37:01;26.70;99.90
75113;DHT22;63692;47.338;8.520;2023-06-22T11:39:26;26.80;99.90
75113;DHT22;63692;47.338;8.520;2023-06-22T11:41:52;26.90;99.90
75113;DHT22;63692;47.338;8.520;2023-06-22T11:44:24;26.90;99.90
75113;DHT22;63692;47.338;8.520;2023-06-22T11:46:52;27.00;99.90
75113;DHT22;63692;47.338;8.520;2023-06-22T11:49:17;27.00;99.90
75113;DHT22;63692;47.338;8.520;2023-06-22T11:52:10;27.10;99.90
75113;DHT22;63692;47.338;8.520;2023-06-22T11:54:36;27.10;99.90
75113;DHT22;63692;47.338;8.520;2023-06-22T11:57:03;27.10;99.90
75113;DHT22;63692;47.338;8.520;2023-06-22T11:59:28;27.20;99.90
75113;DHT22;63692;47.338;8.520;2023-06-22T12:02:00;27.20;99.90
75113;DHT22;63692;47.338;8.520;2023-06-22T12:04:28;27.30;99.90
75113;DHT22;63692;47.338;8.520;2023-06-22T12:06:56;27.30;99.90
75113;DHT22;63692;47.338;8.520;2023-06-22T12:09:22;27.30;99.90
75113;DHT22;63692;47.338;8.520;2023-06-22T12:11:51;27.40;99.90
75113;DHT22;63692;47.338;8.520;2023-06-22T12:14:17;27.40;99.90
75113;DHT22;63692;47.338;8.520;2023-06-22T12:16:43;27.40;99.90
75113;DHT22;63692;47.338;8.520;2023-06-22T12:19:09;27.40;99.90
75113;DHT22;63692;47.338;8.520;2023-06-22T12:21:38;27.50;99.90
75113;DHT22;63692;47.338;8.520;2023-06-22T12:24:09;27.50;99.90
75113;DHT22;63692;47.338;8.520;2023-06-22T12:26:34;27.60;99.90
75113;DHT22;63692;47.338;8.520;2023-06-22T12:31:38;27.60;99.90
75113;DHT22;63692;47.338;8.520;2023-06-22T12:44:07;27.70;99.90
75113;DHT22;63692;47.338;8.520;2023-06-22T13:12:19;28.30;94.10
75113;DHT22;63692;47.338;8.520;2023-06-22T13:14:45;28.30;94.10
75113;DHT22;63692;47.338;8.520;2023-06-22T13:27:09;28.40;88.60
75113;DHT22;63692;47.338;8.520;2023-06-22T13:29:35;28.40;87.50
75113;DHT22;63692;47.338;8.520;2023-06-22T13:32:01;28.40;87.90
75113;DHT22;63692;47.338;8.520;2023-06-22T13:36:54;28.20;85.30
75113;DHT22;63692;47.338;8.520;2023-06-22T13:39:19;28.20;84.60
75113;DHT22;63692;47.338;8.520;2023-06-22T13:46:49;27.90;83.20
75113;DHT22;63692;47.338;8.520;2023-06-22T13:51:43;27.70;79.80
75113;DHT22;63692;47.338;8.520;2023-06-22T13:59:12;27.30;80.90
75113;DHT22;63692;47.338;8.520;2023-06-22T14:01:38;27.20;81.10
75113;DHT22;63692;47.338;8.520;2023-06-22T14:04:05;27.10;81.30
75113;DHT22;63692;47.338;8.520;2023-06-22T14:06:31;27.00;82.40
75113;DHT22;63692;47.338;8.520;2023-06-22T14:39:14;25.30;99.90
75113;DHT22;63692;47.338;8.520;2023-06-22T14:41:39;25.50;99.90
75113;DHT22;63692;47.338;8.520;2023-06-22T14:44:05;25.50;99.90
75113;DHT22;63692;47.338;8.520;2023-06-22T14:46:30;25.60;99.90
75113;DHT22;63692;47.338;8.520;2023-06-22T14:48:56;25.60;99.90
75113;DHT22;63692;47.338;8.520;2023-06-22T14:51:21;25.60;99.90
75113;DHT22;63692;47.338;8.520;2023-06-22T14:53:47;25.70;99.90
75113;DHT22;63692;47.338;8.520;2023-06-22T14:56:13;25.50;99.90
75113;DHT22;63692;47.338;8.520;2023-06-22T14:58:41;25.60;99.90
75113;DHT22;63692;47.338;8.520;2023-06-22T15:01:10;25.90;99.90
75113;DHT22;63692;47.338;8.520;2023-06-22T15:03:36;26.10;99.90
75113;DHT22;63692;47.338;8.520;2023-06-22T15:06:02;27.10;99.90
75113;DHT22;63692;47.338;8.520;2023-06-22T15:08:28;27.40;99.90
75113;DHT22;63692;47.338;8.520;2023-06-22T15:10:54;27.20;99.90
75113;DHT22;63692;47.338;8.520;2023-06-22T15:13:21;27.30;99.90
75113;DHT22;63692;47.338;8.520;2023-06-22T15:15:48;27.30;99.90
75113;DHT22;63692;47.338;8.520;2023-06-22T15:18:17;27.20;99.90
75113;DHT22;63692;47.338;8.520;2023-06-22T15:20:43;27.00;99.90
75113;DHT22;63692;47.338;8.520;2023-06-22T15:23:12;26.70;99.90
75113;DHT22;63692;47.338;8.520;2023-06-22T15:25:38;26.50;99.90
75113;DHT22;63692;47.338;8.520;2023-06-22T15:28:03;26.40;99.90
75113;DHT22;63692;47.338;8.520;2023-06-22T15:30:29;26.00;99.90
75113;DHT22;63692;47.338;8.520;2023-06-22T15:32:57;25.80;99.90
75113;DHT22;63692;47.338;8.520;2023-06-22T15:35:22;25.50;99.90
75113;DHT22;63692;47.338;8.520;2023-06-22T15:37:48;25.40;99.90
75113;DHT22;63692;47.338;8.520;2023-06-22T15:40:14;25.30;99.90
75113;DHT22;63692;47.338;8.520;2023-06-22T15:42:40;25.20;99.90
75113;DHT22;63692;47.338;8.520;2023-06-22T15:45:06;25.10;99.90
75113;DHT22;63692;47.338;8.520;2023-06-22T15:47:32;25.00;99.90
75113;DHT22;63692;47.338;8.520;2023-06-22T15:49:57;24.90;99.90
75113;DHT22;63692;47.338;8.520;2023-06-22T15:52:23;24.80;99.90
75113;DHT22;63692;47.338;8.520;2023-06-22T15:54:49;24.90;99.90
75113;DHT22;63692;47.338;8.520;2023-06-22T15:57:19;24.80;99.90
75113;DHT22;63692;47.338;8.520;2023-06-22T15:59:45;24.80;99.90
75113;DHT22;63692;47.338;8.520;2023-06-22T16:02:11;24.70;99.90
75113;DHT22;63692;47.338;8.520;2023-06-22T16:42:27;23.10;99.90
75113;DHT22;63692;47.338;8.520;2023-06-22T16:44:53;23.10;99.90
75113;DHT22;63692;47.338;8.520;2023-06-22T16:47:18;23.00;99.90
75113;DHT22;63692;47.338;8.520;2023-06-22T16:49:57;22.90;99.90
75113;DHT22;63692;47.338;8.520;2023-06-22T16:52:26;22.80;99.90
75113;DHT22;63692;47.338;8.520;2023-06-22T16:55:00;22.70;99.90
75113;DHT22;63692;47.338;8.520;2023-06-22T16:57:26;22.80;99.90
75113;DHT22;63692;47.338;8.520;2023-06-22T16:59:52;22.70;99.90
75113;DHT22;63692;47.338;8.520;2023-06-22T17:02:19;22.50;99.90
75113;DHT22;63692;47.338;8.520;2023-06-22T17:07:19;22.40;99.90
75113;DHT22;63692;47.338;8.520;2023-06-22T17:09:47;22.60;99.90
75113;DHT22;63692;47.338;8.520;2023-06-22T17:14:41;22.40;99.90
75113;DHT22;63692;47.338;8.520;2023-06-22T17:17:10;22.50;99.90
75113;DHT22;63692;47.338;8.520;2023-06-22T17:19:36;22.50;99.90
75113;DHT22;63692;47.338;8.520;2023-06-22T17:22:02;22.50;99.90
75113;DHT22;63692;47.338;8.520;2023-06-22T17:24:28;22.30;99.90
75113;DHT22;63692;47.338;8.520;2023-06-22T17:26:55;22.00;99.90
75113;DHT22;63692;47.338;8.520;2023-06-22T17:29:35;21.70;99.90
75113;DHT22;63692;47.338;8.520;2023-06-22T17:36:57;21.30;99.90
75113;DHT22;63692;47.338;8.520;2023-06-22T17:39:25;21.10;99.90
75113;DHT22;63692;47.338;8.520;2023-06-22T17:41:53;21.10;99.90
75113;DHT22;63692;47.338;8.520;2023-06-22T17:44:23;21.10;99.90
75113;DHT22;63692;47.338;8.520;2023-06-22T18:01:51;21.70;99.90
75113;DHT22;63692;47.338;8.520;2023-06-22T18:04:18;21.70;99.90
75113;DHT22;63692;47.338;8.520;2023-06-22T18:06:47;21.70;99.90
75113;DHT22;63692;47.338;8.520;2023-06-22T18:11:50;21.50;99.90
75113;DHT22;63692;47.338;8.520;2023-06-22T18:14:18;21.60;99.90
75113;DHT22;63692;47.338;8.520;2023-06-22T20:17:14;20.20;99.90
75113;DHT22;63692;47.338;8.520;2023-06-22T20:19:40;20.20;99.90
